sensor_id;sensor_type;location;lat;lon;timestamp;P1;durP1;ratioP1;P2;durP2;ratioP2
6671;SDS011;3372;48.690;12.362;2024-03-06T00:01:04;23.35;;;13.02;;
6671;SDS011;3372;48.690;12.362;2024-03-06T00:05:57;19.77;;;12.45;;
6671;SDS011;3372;48.690;12.362;2024-03-06T00:08:23;20.23;;;12.55;;
6671;SDS011;3372;48.690;12.362;2024-03-06T00:10:49;18.60;;;11.07;;
6671;SDS011;3372;48.690;12.362;2024-03-06T00:13:15;16.55;;;11.68;;
6671;SDS011;3372;48.690;12.362;2024-03-06T00:15:41;17.00;;;10.38;;
6671;SDS011;3372;48.690;12.362;2024-03-06T00:18:07;17.48;;;10.27;;
6671;SDS011;3372;48.690;12.362;2024-03-06T00:20:34;19.42;;;12.32;;
6671;SDS011;3372;48.690;12.362;2024-03-06T00:23:00;15.88;;;10.23;;
6671;SDS011;3372;48.690;12.362;2024-03-06T00:25:25;19.10;;;10.73;;
6671;SDS011;3372;48.690;12.362;2024-03-06T00:27:52;17.17;;;11.48;;
6671;SDS011;3372;48.690;12.362;2024-03-06T00:30:19;17.05;;;10.57;;
6671;SDS011;3372;48.690;12.362;2024-03-06T00:32:45;16.02;;;10.65;;
6671;SDS011;3372;48.690;12.362;2024-03-06T00:35:11;15.30;;;10.25;;
6671;SDS011;3372;48.690;12.362;2024-03-06T00:37:37;19.05;;;10.70;;
6671;SDS011;3372;48.690;12.362;2024-03-06T00:40:03;16.02;;;10.55;;
6671;SDS011;3372;48.690;12.362;2024-03-06T00:42:29;17.90;;;11.05;;
6671;SDS011;3372;48.690;12.362;2024-03-06T00:44:55;15.45;;;10.23;;
6671;SDS011;3372;48.690;12.362;2024-03-06T00:47:21;16.58;;;10.73;;
6671;SDS011;3372;48.690;12.362;2024-03-06T00:49:47;17.35;;;10.82;;
6671;SDS011;3372;48.690;12.362;2024-03-06T00:52:13;19.20;;;11.80;;
6671;SDS011;3372;48.690;12.362;2024-03-06T00:54:39;18.83;;;10.98;;
6671;SDS011;3372;48.690;12.362;2024-03-06T00:57:05;17.95;;;11.00;;
6671;SDS011;3372;48.690;12.362;2024-03-06T00:59:31;17.77;;;11.98;;
6671;SDS011;3372;48.690;12.362;2024-03-06T01:01:57;15.20;;;9.88;;
6671;SDS011;3372;48.690;12.362;2024-03-06T01:04:23;16.15;;;10.02;;
6671;SDS011;3372;48.690;12.362;2024-03-06T01:06:49;18.05;;;10.25;;
6671;SDS011;3372;48.690;12.362;2024-03-06T01:09:15;15.48;;;9.82;;
6671;SDS011;3372;48.690;12.362;2024-03-06T01:11:41;16.73;;;10.82;;
6671;SDS011;3372;48.690;12.362;2024-03-06T01:14:07;17.10;;;9.95;;
6671;SDS011;3372;48.690;12.362;2024-03-06T01:16:33;18.23;;;11.05;;
6671;SDS011;3372;48.690;12.362;2024-03-06T01:18:59;16.08;;;9.65;;
6671;SDS011;3372;48.690;12.362;2024-03-06T01:21:25;16.13;;;9.95;;
6671;SDS011;3372;48.690;12.362;2024-03-06T01:23:50;14.40;;;9.43;;
6671;SDS011;3372;48.690;12.362;2024-03-06T01:26:16;14.90;;;9.10;;
6671;SDS011;3372;48.690;12.362;2024-03-06T01:28:42;14.23;;;10.70;;
6671;SDS011;3372;48.690;12.362;2024-03-06T01:31:09;15.68;;;9.80;;
6671;SDS011;3372;48.690;12.362;2024-03-06T01:33:35;15.40;;;11.18;;
6671;SDS011;3372;48.690;12.362;2024-03-06T01:36:01;19.30;;;11.27;;
6671;SDS011;3372;48.690;12.362;2024-03-06T01:38:27;22.35;;;13.45;;
6671;SDS011;3372;48.690;12.362;2024-03-06T01:40:53;21.10;;;12.63;;
6671;SDS011;3372;48.690;12.362;2024-03-06T01:43:21;18.60;;;11.15;;
6671;SDS011;3372;48.690;12.362;2024-03-06T01:45:48;17.05;;;9.60;;
6671;SDS011;3372;48.690;12.362;2024-03-06T01:48:15;14.93;;;9.05;;
6671;SDS011;3372;48.690;12.362;2024-03-06T01:50:42;15.10;;;9.02;;
6671;SDS011;3372;48.690;12.362;2024-03-06T01:53:08;16.73;;;9.65;;
6671;SDS011;3372;48.690;12.362;2024-03-06T01:55:34;18.27;;;9.82;;
6671;SDS011;3372;48.690;12.362;2024-03-06T01:58:01;14.98;;;9.20;;
6671;SDS011;3372;48.690;12.362;2024-03-06T02:00:27;15.88;;;10.10;;
6671;SDS011;3372;48.690;12.362;2024-03-06T02:02:53;14.77;;;9.07;;
6671;SDS011;3372;48.690;12.362;2024-03-06T02:05:19;14.63;;;9.02;;
6671;SDS011;3372;48.690;12.362;2024-03-06T02:07:45;18.20;;;9.75;;
6671;SDS011;3372;48.690;12.362;2024-03-06T02:12:38;19.42;;;10.73;;
6671;SDS011;3372;48.690;12.362;2024-03-06T02:15:04;18.58;;;9.40;;
6671;SDS011;3372;48.690;12.362;2024-03-06T02:17:30;16.00;;;9.63;;
6671;SDS011;3372;48.690;12.362;2024-03-06T02:19:56;15.73;;;9.60;;
6671;SDS011;3372;48.690;12.362;2024-03-06T02:22:25;16.45;;;8.85;;
6671;SDS011;3372;48.690;12.362;2024-03-06T02:24:51;15.65;;;8.70;;
6671;SDS011;3372;48.690;12.362;2024-03-06T02:27:17;15.25;;;8.90;;
6671;SDS011;3372;48.690;12.362;2024-03-06T02:29:43;15.70;;;9.50;;
6671;SDS011;3372;48.690;12.362;2024-03-06T02:32:11;18.05;;;9.55;;
6671;SDS011;3372;48.690;12.362;2024-03-06T02:34:38;14.60;;;9.00;;
6671;SDS011;3372;48.690;12.362;2024-03-06T02:37:05;16.15;;;9.98;;
6671;SDS011;3372;48.690;12.362;2024-03-06T02:39:31;16.48;;;9.93;;
6671;SDS011;3372;48.690;12.362;2024-03-06T02:41:57;22.45;;;10.88;;
6671;SDS011;3372;48.690;12.362;2024-03-06T02:44:23;16.88;;;9.90;;
6671;SDS011;3372;48.690;12.362;2024-03-06T02:46:50;17.48;;;10.25;;
6671;SDS011;3372;48.690;12.362;2024-03-06T02:49:16;15.68;;;9.05;;
6671;SDS011;3372;48.690;12.362;2024-03-06T02:51:42;16.13;;;9.40;;
6671;SDS011;3372;48.690;12.362;2024-03-06T02:54:08;17.85;;;10.07;;
6671;SDS011;3372;48.690;12.362;2024-03-06T02:56:34;22.75;;;12.82;;
6671;SDS011;3372;48.690;12.362;2024-03-06T02:59:00;22.67;;;12.20;;
6671;SDS011;3372;48.690;12.362;2024-03-06T03:01:28;20.30;;;11.93;;
6671;SDS011;3372;48.690;12.362;2024-03-06T03:03:55;16.77;;;10.20;;
6671;SDS011;3372;48.690;12.362;2024-03-06T03:06:21;19.08;;;11.55;;
6671;SDS011;3372;48.690;12.362;2024-03-06T03:08:49;30.27;;;18.55;;
6671;SDS011;3372;48.690;12.362;2024-03-06T03:11:15;29.75;;;16.33;;
6671;SDS011;3372;48.690;12.362;2024-03-06T03:13:41;20.23;;;12.85;;
6671;SDS011;3372;48.690;12.362;2024-03-06T03:16:14;22.05;;;13.88;;
6671;SDS011;3372;48.690;12.362;2024-03-06T03:18:40;23.23;;;14.10;;
6671;SDS011;3372;48.690;12.362;2024-03-06T03:21:08;26.58;;;13.35;;
6671;SDS011;3372;48.690;12.362;2024-03-06T03:23:35;17.85;;;10.90;;
6671;SDS011;3372;48.690;12.362;2024-03-06T03:26:01;16.73;;;10.48;;
6671;SDS011;3372;48.690;12.362;2024-03-06T03:28:28;20.10;;;11.35;;
6671;SDS011;3372;48.690;12.362;2024-03-06T03:30:54;17.13;;;11.35;;
6671;SDS011;3372;48.690;12.362;2024-03-06T03:33:21;15.05;;;8.50;;
6671;SDS011;3372;48.690;12.362;2024-03-06T03:35:47;16.48;;;9.23;;
6671;SDS011;3372;48.690;12.362;2024-03-06T03:38:13;17.10;;;8.73;;
6671;SDS011;3372;48.690;12.362;2024-03-06T03:40:39;15.27;;;8.90;;
6671;SDS011;3372;48.690;12.362;2024-03-06T03:43:05;15.20;;;8.70;;
6671;SDS011;3372;48.690;12.362;2024-03-06T03:45:35;14.75;;;8.10;;
6671;SDS011;3372;48.690;12.362;2024-03-06T03:48:01;15.27;;;9.02;;
6671;SDS011;3372;48.690;12.362;2024-03-06T03:50:28;14.93;;;9.35;;
6671;SDS011;3372;48.690;12.362;2024-03-06T03:52:54;16.75;;;9.57;;
6671;SDS011;3372;48.690;12.362;2024-03-06T03:55:23;18.23;;;9.40;;
6671;SDS011;3372;48.690;12.362;2024-03-06T03:57:49;14.00;;;8.27;;
6671;SDS011;3372;48.690;12.362;2024-03-06T04:00:15;14.77;;;7.97;;
6671;SDS011;3372;48.690;12.362;2024-03-06T04:02:41;15.27;;;8.52;;
6671;SDS011;3372;48.690;12.362;2024-03-06T04:05:07;16.75;;;10.07;;
6671;SDS011;3372;48.690;12.362;2024-03-06T04:07:34;15.85;;;9.65;;
6671;SDS011;3372;48.690;12.362;2024-03-06T04:10:01;17.20;;;9.38;;
6671;SDS011;3372;48.690;12.362;2024-03-06T04:12:27;18.35;;;9.27;;
6671;SDS011;3372;48.690;12.362;2024-03-06T04:14:53;16.40;;;9.55;;
6671;SDS011;3372;48.690;12.362;2024-03-06T04:17:19;20.13;;;9.35;;
6671;SDS011;3372;48.690;12.362;2024-03-06T04:19:45;15.88;;;9.63;;
6671;SDS011;3372;48.690;12.362;2024-03-06T04:22:13;15.55;;;8.95;;
6671;SDS011;3372;48.690;12.362;2024-03-06T04:24:40;14.48;;;8.68;;
6671;SDS011;3372;48.690;12.362;2024-03-06T04:27:07;18.70;;;8.98;;
6671;SDS011;3372;48.690;12.362;2024-03-06T04:29:33;17.02;;;8.27;;
6671;SDS011;3372;48.690;12.362;2024-03-06T04:31:59;13.98;;;8.63;;
6671;SDS011;3372;48.690;12.362;2024-03-06T04:34:25;13.27;;;8.48;;
6671;SDS011;3372;48.690;12.362;2024-03-06T04:36:51;14.25;;;8.40;;
6671;SDS011;3372;48.690;12.362;2024-03-06T04:39:17;17.35;;;9.68;;
6671;SDS011;3372;48.690;12.362;2024-03-06T04:41:43;13.70;;;8.73;;
6671;SDS011;3372;48.690;12.362;2024-03-06T04:44:09;17.45;;;8.98;;
6671;SDS011;3372;48.690;12.362;2024-03-06T04:46:35;14.13;;;8.55;;
6671;SDS011;3372;48.690;12.362;2024-03-06T04:49:01;14.07;;;8.32;;
6671;SDS011;3372;48.690;12.362;2024-03-06T04:51:27;15.13;;;8.90;;
6671;SDS011;3372;48.690;12.362;2024-03-06T04:53:53;17.70;;;9.07;;
6671;SDS011;3372;48.690;12.362;2024-03-06T04:56:19;24.20;;;13.55;;
6671;SDS011;3372;48.690;12.362;2024-03-06T04:58:47;37.50;;;21.60;;
6671;SDS011;3372;48.690;12.362;2024-03-06T05:01:13;19.13;;;11.25;;
6671;SDS011;3372;48.690;12.362;2024-03-06T05:03:39;20.30;;;11.05;;
6671;SDS011;3372;48.690;12.362;2024-03-06T05:06:05;18.67;;;10.38;;
6671;SDS011;3372;48.690;12.362;2024-03-06T05:08:31;19.00;;;10.18;;
6671;SDS011;3372;48.690;12.362;2024-03-06T05:10:59;17.20;;;10.45;;
6671;SDS011;3372;48.690;12.362;2024-03-06T05:13:25;16.15;;;10.20;;
6671;SDS011;3372;48.690;12.362;2024-03-06T05:15:52;17.42;;;10.40;;
6671;SDS011;3372;48.690;12.362;2024-03-06T05:18:19;18.10;;;10.27;;
6671;SDS011;3372;48.690;12.362;2024-03-06T05:20:45;16.15;;;8.45;;
6671;SDS011;3372;48.690;12.362;2024-03-06T05:23:11;17.38;;;8.98;;
6671;SDS011;3372;48.690;12.362;2024-03-06T05:25:39;15.95;;;9.57;;
6671;SDS011;3372;48.690;12.362;2024-03-06T05:28:06;14.88;;;8.98;;
6671;SDS011;3372;48.690;12.362;2024-03-06T05:30:32;19.88;;;9.63;;
6671;SDS011;3372;48.690;12.362;2024-03-06T05:32:58;14.80;;;8.60;;
6671;SDS011;3372;48.690;12.362;2024-03-06T05:35:23;17.45;;;9.98;;
6671;SDS011;3372;48.690;12.362;2024-03-06T05:37:50;18.75;;;9.10;;
6671;SDS011;3372;48.690;12.362;2024-03-06T05:40:16;16.73;;;9.40;;
6671;SDS011;3372;48.690;12.362;2024-03-06T05:42:42;16.83;;;9.38;;
6671;SDS011;3372;48.690;12.362;2024-03-06T05:45:08;18.80;;;10.52;;
6671;SDS011;3372;48.690;12.362;2024-03-06T05:47:37;17.60;;;10.05;;
6671;SDS011;3372;48.690;12.362;2024-03-06T05:50:03;17.23;;;9.18;;
6671;SDS011;3372;48.690;12.362;2024-03-06T05:52:33;16.60;;;10.07;;
6671;SDS011;3372;48.690;12.362;2024-03-06T05:54:59;18.05;;;10.95;;
6671;SDS011;3372;48.690;12.362;2024-03-06T05:57:25;21.00;;;10.68;;
6671;SDS011;3372;48.690;12.362;2024-03-06T05:59:51;15.95;;;9.10;;
6671;SDS011;3372;48.690;12.362;2024-03-06T06:02:17;15.70;;;8.55;;
6671;SDS011;3372;48.690;12.362;2024-03-06T06:04:44;16.05;;;8.95;;
6671;SDS011;3372;48.690;12.362;2024-03-06T06:07:10;21.95;;;10.55;;
6671;SDS011;3372;48.690;12.362;2024-03-06T06:09:36;20.55;;;10.77;;
6671;SDS011;3372;48.690;12.362;2024-03-06T06:12:02;18.80;;;10.60;;
6671;SDS011;3372;48.690;12.362;2024-03-06T06:14:28;19.80;;;10.93;;
6671;SDS011;3372;48.690;12.362;2024-03-06T06:16:54;17.25;;;10.90;;
6671;SDS011;3372;48.690;12.362;2024-03-06T06:19:20;20.58;;;11.73;;
6671;SDS011;3372;48.690;12.362;2024-03-06T06:21:46;19.80;;;10.85;;
6671;SDS011;3372;48.690;12.362;2024-03-06T06:24:12;22.33;;;12.65;;
6671;SDS011;3372;48.690;12.362;2024-03-06T06:26:39;24.48;;;12.25;;
6671;SDS011;3372;48.690;12.362;2024-03-06T06:29:05;24.08;;;13.43;;
6671;SDS011;3372;48.690;12.362;2024-03-06T06:31:33;20.05;;;12.73;;
6671;SDS011;3372;48.690;12.362;2024-03-06T06:33:59;25.65;;;13.60;;
6671;SDS011;3372;48.690;12.362;2024-03-06T06:36:25;21.90;;;12.38;;
6671;SDS011;3372;48.690;12.362;2024-03-06T06:38:52;21.30;;;12.93;;
6671;SDS011;3372;48.690;12.362;2024-03-06T06:41:19;22.50;;;12.68;;
6671;SDS011;3372;48.690;12.362;2024-03-06T06:43:45;25.02;;;15.13;;
6671;SDS011;3372;48.690;12.362;2024-03-06T06:46:11;25.98;;;15.10;;
6671;SDS011;3372;48.690;12.362;2024-03-06T06:48:37;23.42;;;14.80;;
6671;SDS011;3372;48.690;12.362;2024-03-06T06:51:03;28.35;;;15.35;;
6671;SDS011;3372;48.690;12.362;2024-03-06T06:53:29;28.40;;;15.95;;
6671;SDS011;3372;48.690;12.362;2024-03-06T06:55:55;30.13;;;15.10;;
6671;SDS011;3372;48.690;12.362;2024-03-06T06:58:22;31.25;;;16.25;;
6671;SDS011;3372;48.690;12.362;2024-03-06T07:00:48;30.80;;;17.63;;
6671;SDS011;3372;48.690;12.362;2024-03-06T07:03:14;30.83;;;16.17;;
6671;SDS011;3372;48.690;12.362;2024-03-06T07:05:40;31.52;;;16.92;;
6671;SDS011;3372;48.690;12.362;2024-03-06T07:08:07;31.95;;;16.08;;
6671;SDS011;3372;48.690;12.362;2024-03-06T07:10:33;29.88;;;15.90;;
6671;SDS011;3372;48.690;12.362;2024-03-06T07:13:01;27.20;;;16.33;;
6671;SDS011;3372;48.690;12.362;2024-03-06T07:15:27;82.70;;;45.20;;
6671;SDS011;3372;48.690;12.362;2024-03-06T07:17:53;46.55;;;26.42;;
6671;SDS011;3372;48.690;12.362;2024-03-06T07:20:19;32.00;;;18.52;;
6671;SDS011;3372;48.690;12.362;2024-03-06T07:22:45;31.33;;;19.30;;
6671;SDS011;3372;48.690;12.362;2024-03-06T07:25:11;31.52;;;21.23;;
6671;SDS011;3372;48.690;12.362;2024-03-06T07:27:38;29.25;;;15.98;;
6671;SDS011;3372;48.690;12.362;2024-03-06T07:30:04;29.73;;;16.50;;
6671;SDS011;3372;48.690;12.362;2024-03-06T07:32:32;29.23;;;16.05;;
6671;SDS011;3372;48.690;12.362;2024-03-06T07:34:58;29.02;;;15.77;;
6671;SDS011;3372;48.690;12.362;2024-03-06T07:37:25;26.75;;;15.93;;
6671;SDS011;3372;48.690;12.362;2024-03-06T07:39:51;27.60;;;15.32;;
6671;SDS011;3372;48.690;12.362;2024-03-06T07:42:17;27.35;;;15.23;;
6671;SDS011;3372;48.690;12.362;2024-03-06T07:44:43;29.70;;;16.20;;
6671;SDS011;3372;48.690;12.362;2024-03-06T07:47:09;26.80;;;15.25;;
6671;SDS011;3372;48.690;12.362;2024-03-06T07:49:35;26.20;;;15.15;;
6671;SDS011;3372;48.690;12.362;2024-03-06T07:52:01;28.92;;;16.95;;
6671;SDS011;3372;48.690;12.362;2024-03-06T07:54:27;31.27;;;18.20;;
6671;SDS011;3372;48.690;12.362;2024-03-06T07:56:53;27.83;;;16.15;;
6671;SDS011;3372;48.690;12.362;2024-03-06T07:59:19;27.48;;;15.73;;
6671;SDS011;3372;48.690;12.362;2024-03-06T08:01:45;26.65;;;15.05;;
6671;SDS011;3372;48.690;12.362;2024-03-06T08:04:11;29.73;;;16.48;;
6671;SDS011;3372;48.690;12.362;2024-03-06T08:06:37;29.75;;;16.17;;
6671;SDS011;3372;48.690;12.362;2024-03-06T08:09:03;28.63;;;14.90;;
6671;SDS011;3372;48.690;12.362;2024-03-06T08:11:29;26.42;;;16.35;;
6671;SDS011;3372;48.690;12.362;2024-03-06T08:13:58;28.45;;;15.27;;
6671;SDS011;3372;48.690;12.362;2024-03-06T08:16:24;27.85;;;16.23;;
6671;SDS011;3372;48.690;12.362;2024-03-06T08:18:50;24.75;;;15.50;;
6671;SDS011;3372;48.690;12.362;2024-03-06T08:21:16;27.08;;;15.57;;
6671;SDS011;3372;48.690;12.362;2024-03-06T08:23:44;25.80;;;14.57;;
6671;SDS011;3372;48.690;12.362;2024-03-06T08:26:10;25.58;;;15.50;;
6671;SDS011;3372;48.690;12.362;2024-03-06T08:28:36;26.42;;;14.30;;
6671;SDS011;3372;48.690;12.362;2024-03-06T08:31:02;28.88;;;15.05;;
6671;SDS011;3372;48.690;12.362;2024-03-06T08:33:28;27.77;;;15.20;;
6671;SDS011;3372;48.690;12.362;2024-03-06T08:35:54;25.25;;;14.55;;
6671;SDS011;3372;48.690;12.362;2024-03-06T08:38:20;26.20;;;15.45;;
6671;SDS011;3372;48.690;12.362;2024-03-06T08:40:46;26.20;;;14.50;;
6671;SDS011;3372;48.690;12.362;2024-03-06T08:43:13;23.80;;;13.23;;
6671;SDS011;3372;48.690;12.362;2024-03-06T08:45:40;22.40;;;14.48;;
6671;SDS011;3372;48.690;12.362;2024-03-06T08:48:06;22.10;;;13.65;;
6671;SDS011;3372;48.690;12.362;2024-03-06T08:50:32;24.42;;;13.82;;
6671;SDS011;3372;48.690;12.362;2024-03-06T08:52:58;70.53;;;63.78;;
6671;SDS011;3372;48.690;12.362;2024-03-06T08:55:24;21.83;;;13.27;;
6671;SDS011;3372;48.690;12.362;2024-03-06T08:57:50;25.58;;;14.48;;
6671;SDS011;3372;48.690;12.362;2024-03-06T09:00:17;23.17;;;13.85;;
6671;SDS011;3372;48.690;12.362;2024-03-06T09:02:43;21.55;;;13.02;;
6671;SDS011;3372;48.690;12.362;2024-03-06T09:05:10;19.63;;;12.38;;
6671;SDS011;3372;48.690;12.362;2024-03-06T09:07:37;21.00;;;13.43;;
6671;SDS011;3372;48.690;12.362;2024-03-06T09:10:05;22.67;;;13.55;;
6671;SDS011;3372;48.690;12.362;2024-03-06T09:12:31;21.40;;;13.00;;
6671;SDS011;3372;48.690;12.362;2024-03-06T09:14:57;22.95;;;13.00;;
6671;SDS011;3372;48.690;12.362;2024-03-06T09:17:25;19.98;;;12.23;;
6671;SDS011;3372;48.690;12.362;2024-03-06T09:19:51;18.83;;;11.50;;
6671;SDS011;3372;48.690;12.362;2024-03-06T09:22:18;22.15;;;13.23;;
6671;SDS011;3372;48.690;12.362;2024-03-06T09:24:44;20.02;;;12.20;;
6671;SDS011;3372;48.690;12.362;2024-03-06T09:27:10;40.65;;;21.33;;
6671;SDS011;3372;48.690;12.362;2024-03-06T09:29:36;36.15;;;20.10;;
6671;SDS011;3372;48.690;12.362;2024-03-06T09:32:02;32.70;;;18.52;;
6671;SDS011;3372;48.690;12.362;2024-03-06T09:34:28;24.63;;;14.85;;
6671;SDS011;3372;48.690;12.362;2024-03-06T09:36:54;32.85;;;19.92;;
6671;SDS011;3372;48.690;12.362;2024-03-06T09:39:20;20.02;;;12.65;;
6671;SDS011;3372;48.690;12.362;2024-03-06T09:41:47;19.00;;;12.07;;
6671;SDS011;3372;48.690;12.362;2024-03-06T09:44:14;18.13;;;11.25;;
6671;SDS011;3372;48.690;12.362;2024-03-06T09:46:42;19.13;;;11.63;;
6671;SDS011;3372;48.690;12.362;2024-03-06T09:49:09;22.08;;;12.18;;
6671;SDS011;3372;48.690;12.362;2024-03-06T09:51:35;18.83;;;10.95;;
6671;SDS011;3372;48.690;12.362;2024-03-06T09:54:03;17.83;;;11.55;;
6671;SDS011;3372;48.690;12.362;2024-03-06T09:56:29;18.75;;;11.30;;
6671;SDS011;3372;48.690;12.362;2024-03-06T09:58:55;19.27;;;10.88;;
6671;SDS011;3372;48.690;12.362;2024-03-06T10:01:21;19.75;;;11.73;;
6671;SDS011;3372;48.690;12.362;2024-03-06T10:03:49;21.45;;;11.65;;
6671;SDS011;3372;48.690;12.362;2024-03-06T10:06:15;17.85;;;10.75;;
6671;SDS011;3372;48.690;12.362;2024-03-06T10:08:42;20.20;;;9.88;;
6671;SDS011;3372;48.690;12.362;2024-03-06T10:11:09;17.92;;;10.82;;
6671;SDS011;3372;48.690;12.362;2024-03-06T10:13:35;18.17;;;9.77;;
6671;SDS011;3372;48.690;12.362;2024-03-06T10:16:02;14.68;;;9.73;;
6671;SDS011;3372;48.690;12.362;2024-03-06T10:20:55;18.42;;;9.70;;
6671;SDS011;3372;48.690;12.362;2024-03-06T10:23:21;15.98;;;10.55;;
6671;SDS011;3372;48.690;12.362;2024-03-06T10:25:47;18.70;;;9.45;;
6671;SDS011;3372;48.690;12.362;2024-03-06T10:28:16;14.55;;;9.10;;
6671;SDS011;3372;48.690;12.362;2024-03-06T10:30:42;15.45;;;9.60;;
6671;SDS011;3372;48.690;12.362;2024-03-06T10:33:09;15.50;;;10.48;;
6671;SDS011;3372;48.690;12.362;2024-03-06T10:35:36;16.92;;;10.05;;
6671;SDS011;3372;48.690;12.362;2024-03-06T10:38:06;17.33;;;9.85;;
6671;SDS011;3372;48.690;12.362;2024-03-06T10:40:37;16.90;;;9.93;;
6671;SDS011;3372;48.690;12.362;2024-03-06T10:43:03;15.35;;;9.90;;
6671;SDS011;3372;48.690;12.362;2024-03-06T10:47:58;15.82;;;10.35;;
6671;SDS011;3372;48.690;12.362;2024-03-06T10:50:24;16.60;;;9.65;;
6671;SDS011;3372;48.690;12.362;2024-03-06T10:52:53;15.73;;;9.50;;
6671;SDS011;3372;48.690;12.362;2024-03-06T10:55:22;14.45;;;9.50;;
6671;SDS011;3372;48.690;12.362;2024-03-06T10:57:48;13.77;;;9.10;;
6671;SDS011;3372;48.690;12.362;2024-03-06T11:00:15;16.13;;;9.88;;
6671;SDS011;3372;48.690;12.362;2024-03-06T11:02:45;13.63;;;9.07;;
6671;SDS011;3372;48.690;12.362;2024-03-06T11:05:13;16.27;;;9.55;;
6671;SDS011;3372;48.690;12.362;2024-03-06T11:07:40;13.32;;;8.27;;
6671;SDS011;3372;48.690;12.362;2024-03-06T11:10:06;13.88;;;7.78;;
6671;SDS011;3372;48.690;12.362;2024-03-06T11:12:33;13.02;;;7.75;;
6671;SDS011;3372;48.690;12.362;2024-03-06T11:15:00;11.05;;;7.57;;
6671;SDS011;3372;48.690;12.362;2024-03-06T11:17:28;11.73;;;7.25;;
6671;SDS011;3372;48.690;12.362;2024-03-06T11:28:04;13.15;;;7.72;;
6671;SDS011;3372;48.690;12.362;2024-03-06T11:30:30;14.52;;;9.00;;
6671;SDS011;3372;48.690;12.362;2024-03-06T11:32:57;15.35;;;8.98;;
6671;SDS011;3372;48.690;12.362;2024-03-06T11:35:23;11.98;;;8.05;;
6671;SDS011;3372;48.690;12.362;2024-03-06T11:37:49;13.77;;;8.43;;
6671;SDS011;3372;48.690;12.362;2024-03-06T11:40:22;13.90;;;8.52;;
6671;SDS011;3372;48.690;12.362;2024-03-06T11:42:49;13.65;;;8.40;;
6671;SDS011;3372;48.690;12.362;2024-03-06T11:45:16;15.80;;;8.07;;
6671;SDS011;3372;48.690;12.362;2024-03-06T11:50:08;14.63;;;8.63;;
6671;SDS011;3372;48.690;12.362;2024-03-06T11:52:34;12.90;;;7.22;;
6671;SDS011;3372;48.690;12.362;2024-03-06T11:55:00;14.23;;;8.27;;
6671;SDS011;3372;48.690;12.362;2024-03-06T11:57:26;14.35;;;9.32;;
6671;SDS011;3372;48.690;12.362;2024-03-06T11:59:53;13.95;;;8.77;;
6671;SDS011;3372;48.690;12.362;2024-03-06T12:02:19;12.60;;;8.85;;
6671;SDS011;3372;48.690;12.362;2024-03-06T12:04:45;13.07;;;8.32;;
6671;SDS011;3372;48.690;12.362;2024-03-06T12:07:11;13.13;;;7.82;;
6671;SDS011;3372;48.690;12.362;2024-03-06T12:09:37;12.55;;;7.95;;
6671;SDS011;3372;48.690;12.362;2024-03-06T12:12:05;12.75;;;7.68;;
6671;SDS011;3372;48.690;12.362;2024-03-06T12:14:34;13.02;;;8.20;;
6671;SDS011;3372;48.690;12.362;2024-03-06T12:17:01;13.35;;;9.00;;
6671;SDS011;3372;48.690;12.362;2024-03-06T12:19:31;15.73;;;9.68;;
6671;SDS011;3372;48.690;12.362;2024-03-06T12:22:01;12.00;;;7.00;;
6671;SDS011;3372;48.690;12.362;2024-03-06T12:24:29;15.70;;;8.63;;
6671;SDS011;3372;48.690;12.362;2024-03-06T12:27:02;13.13;;;7.40;;
6671;SDS011;3372;48.690;12.362;2024-03-06T12:29:29;12.65;;;7.10;;
6671;SDS011;3372;48.690;12.362;2024-03-06T12:31:56;14.30;;;8.68;;
6671;SDS011;3372;48.690;12.362;2024-03-06T12:34:22;10.88;;;7.55;;
6671;SDS011;3372;48.690;12.362;2024-03-06T12:36:48;15.40;;;8.45;;
6671;SDS011;3372;48.690;12.362;2024-03-06T12:39:17;12.13;;;8.02;;
6671;SDS011;3372;48.690;12.362;2024-03-06T12:41:48;11.55;;;7.78;;
6671;SDS011;3372;48.690;12.362;2024-03-06T12:44:14;11.75;;;7.68;;
6671;SDS011;3372;48.690;12.362;2024-03-06T12:46:40;11.98;;;7.60;;
6671;SDS011;3372;48.690;12.362;2024-03-06T12:49:06;12.23;;;7.47;;
6671;SDS011;3372;48.690;12.362;2024-03-06T12:51:32;11.50;;;7.72;;
6671;SDS011;3372;48.690;12.362;2024-03-06T12:53:58;13.02;;;7.90;;
6671;SDS011;3372;48.690;12.362;2024-03-06T12:56:24;11.52;;;7.82;;
6671;SDS011;3372;48.690;12.362;2024-03-06T12:58:51;12.48;;;7.65;;
6671;SDS011;3372;48.690;12.362;2024-03-06T13:01:17;12.07;;;7.72;;
6671;SDS011;3372;48.690;12.362;2024-03-06T13:03:45;12.60;;;7.57;;
6671;SDS011;3372;48.690;12.362;2024-03-06T13:06:10;12.63;;;7.43;;
6671;SDS011;3372;48.690;12.362;2024-03-06T13:08:36;14.02;;;7.57;;
6671;SDS011;3372;48.690;12.362;2024-03-06T13:11:02;12.05;;;7.60;;
6671;SDS011;3372;48.690;12.362;2024-03-06T13:13:29;15.13;;;8.77;;
6671;SDS011;3372;48.690;12.362;2024-03-06T13:15:57;12.43;;;7.35;;
6671;SDS011;3372;48.690;12.362;2024-03-06T13:18:23;11.13;;;7.90;;
6671;SDS011;3372;48.690;12.362;2024-03-06T13:20:50;12.40;;;7.82;;
6671;SDS011;3372;48.690;12.362;2024-03-06T13:23:16;13.25;;;8.25;;
6671;SDS011;3372;48.690;12.362;2024-03-06T13:25:43;13.95;;;8.13;;
6671;SDS011;3372;48.690;12.362;2024-03-06T13:28:10;14.65;;;8.30;;
6671;SDS011;3372;48.690;12.362;2024-03-06T13:30:36;12.65;;;8.18;;
6671;SDS011;3372;48.690;12.362;2024-03-06T13:33:03;13.00;;;8.02;;
6671;SDS011;3372;48.690;12.362;2024-03-06T13:35:30;11.05;;;7.18;;
6671;SDS011;3372;48.690;12.362;2024-03-06T13:37:56;11.50;;;7.50;;
6671;SDS011;3372;48.690;12.362;2024-03-06T13:40:22;12.20;;;7.28;;
6671;SDS011;3372;48.690;12.362;2024-03-06T13:42:48;10.90;;;7.57;;
6671;SDS011;3372;48.690;12.362;2024-03-06T13:45:14;12.57;;;8.18;;
6671;SDS011;3372;48.690;12.362;2024-03-06T13:47:41;15.10;;;8.48;;
6671;SDS011;3372;48.690;12.362;2024-03-06T13:50:08;14.40;;;9.55;;
6671;SDS011;3372;48.690;12.362;2024-03-06T13:55:00;14.85;;;9.38;;
6671;SDS011;3372;48.690;12.362;2024-03-06T13:57:27;14.07;;;9.88;;
6671;SDS011;3372;48.690;12.362;2024-03-06T13:59:54;15.45;;;8.93;;
6671;SDS011;3372;48.690;12.362;2024-03-06T14:02:20;15.80;;;9.65;;
6671;SDS011;3372;48.690;12.362;2024-03-06T14:04:46;14.02;;;8.98;;
6671;SDS011;3372;48.690;12.362;2024-03-06T14:07:12;12.90;;;9.55;;
6671;SDS011;3372;48.690;12.362;2024-03-06T14:09:38;13.93;;;9.40;;
6671;SDS011;3372;48.690;12.362;2024-03-06T14:12:05;14.90;;;9.88;;
6671;SDS011;3372;48.690;12.362;2024-03-06T14:14:32;15.60;;;10.45;;
6671;SDS011;3372;48.690;12.362;2024-03-06T14:16:58;15.13;;;10.23;;
6671;SDS011;3372;48.690;12.362;2024-03-06T14:19:23;17.00;;;10.23;;
6671;SDS011;3372;48.690;12.362;2024-03-06T14:21:49;15.20;;;9.27;;
6671;SDS011;3372;48.690;12.362;2024-03-06T14:24:16;17.10;;;10.65;;
6671;SDS011;3372;48.690;12.362;2024-03-06T14:26:43;15.98;;;9.43;;
6671;SDS011;3372;48.690;12.362;2024-03-06T14:29:09;13.40;;;9.45;;
6671;SDS011;3372;48.690;12.362;2024-03-06T14:31:35;15.20;;;10.48;;
6671;SDS011;3372;48.690;12.362;2024-03-06T14:34:02;15.88;;;10.35;;
6671;SDS011;3372;48.690;12.362;2024-03-06T14:36:28;14.48;;;10.13;;
6671;SDS011;3372;48.690;12.362;2024-03-06T14:38:55;19.98;;;10.40;;
6671;SDS011;3372;48.690;12.362;2024-03-06T14:41:21;15.98;;;9.52;;
6671;SDS011;3372;48.690;12.362;2024-03-06T14:43:47;17.70;;;11.35;;
6671;SDS011;3372;48.690;12.362;2024-03-06T14:46:13;16.75;;;9.98;;
6671;SDS011;3372;48.690;12.362;2024-03-06T14:48:39;16.38;;;10.45;;
6671;SDS011;3372;48.690;12.362;2024-03-06T14:51:06;16.27;;;10.05;;
6671;SDS011;3372;48.690;12.362;2024-03-06T14:53:32;18.05;;;11.27;;
6671;SDS011;3372;48.690;12.362;2024-03-06T14:55:58;16.50;;;9.77;;
6671;SDS011;3372;48.690;12.362;2024-03-06T14:58:24;17.27;;;10.48;;